sensor_id;sensor_type;location;lat;lon;timestamp;P1;durP1;ratioP1;P2;durP2;ratioP2
75912;SDS011;64592;52.168;21.040;2023-08-30T00:02:18;25.33;;;16.90;;
75912;SDS011;64592;52.168;21.040;2023-08-30T00:07:20;28.50;;;18.17;;
75912;SDS011;64592;52.168;21.040;2023-08-30T00:12:23;21.55;;;16.42;;
75912;SDS011;64592;52.168;21.040;2023-08-30T00:17:25;25.23;;;16.98;;
75912;SDS011;64592;52.168;21.040;2023-08-30T00:22:27;25.20;;;16.92;;
75912;SDS011;64592;52.168;21.040;2023-08-30T00:27:30;24.52;;;17.52;;
75912;SDS011;64592;52.168;21.040;2023-08-30T00:32:31;26.15;;;16.98;;
75912;SDS011;64592;52.168;21.040;2023-08-30T00:37:34;29.35;;;18.95;;
75912;SDS011;64592;52.168;21.040;2023-08-30T00:42:37;29.17;;;18.83;;
75912;SDS011;64592;52.168;21.040;2023-08-30T00:47:40;29.35;;;18.33;;
75912;SDS011;64592;52.168;21.040;2023-08-30T00:52:42;30.35;;;19.50;;
75912;SDS011;64592;52.168;21.040;2023-08-30T00:57:45;31.20;;;19.13;;
75912;SDS011;64592;52.168;21.040;2023-08-30T01:02:47;32.63;;;19.90;;
75912;SDS011;64592;52.168;21.040;2023-08-30T01:07:49;35.80;;;20.08;;
75912;SDS011;64592;52.168;21.040;2023-08-30T01:12:53;40.28;;;23.17;;
75912;SDS011;64592;52.168;21.040;2023-08-30T01:17:59;36.95;;;20.95;;
75912;SDS011;64592;52.168;21.040;2023-08-30T01:23:03;31.65;;;19.60;;
75912;SDS011;64592;52.168;21.040;2023-08-30T01:28:10;33.28;;;20.95;;
75912;SDS011;64592;52.168;21.040;2023-08-30T01:33:16;31.92;;;18.90;;
75912;SDS011;64592;52.168;21.040;2023-08-30T01:38:19;30.63;;;19.80;;
75912;SDS011;64592;52.168;21.040;2023-08-30T01:43:22;28.73;;;18.15;;
75912;SDS011;64592;52.168;21.040;2023-08-30T01:48:25;24.58;;;16.17;;
75912;SDS011;64592;52.168;21.040;2023-08-30T01:53:29;23.75;;;16.48;;
75912;SDS011;64592;52.168;21.040;2023-08-30T01:58:34;25.40;;;17.08;;
75912;SDS011;64592;52.168;21.040;2023-08-30T02:03:36;26.95;;;17.58;;
75912;SDS011;64592;52.168;21.040;2023-08-30T02:08:38;24.95;;;16.15;;
75912;SDS011;64592;52.168;21.040;2023-08-30T02:13:44;25.10;;;16.13;;
75912;SDS011;64592;52.168;21.040;2023-08-30T02:18:47;28.02;;;17.13;;
75912;SDS011;64592;52.168;21.040;2023-08-30T02:23:50;24.83;;;16.08;;
75912;SDS011;64592;52.168;21.040;2023-08-30T02:28:53;26.40;;;16.33;;
75912;SDS011;64592;52.168;21.040;2023-08-30T02:33:55;24.70;;;16.42;;
75912;SDS011;64592;52.168;21.040;2023-08-30T02:38:56;24.92;;;15.73;;
75912;SDS011;64592;52.168;21.040;2023-08-30T02:43:59;22.10;;;15.43;;
75912;SDS011;64592;52.168;21.040;2023-08-30T02:49:01;25.05;;;16.08;;
75912;SDS011;64592;52.168;21.040;2023-08-30T02:54:03;22.65;;;15.02;;
75912;SDS011;64592;52.168;21.040;2023-08-30T02:59:06;24.40;;;15.70;;
75912;SDS011;64592;52.168;21.040;2023-08-30T03:04:08;24.52;;;15.43;;
75912;SDS011;64592;52.168;21.040;2023-08-30T03:09:09;22.02;;;14.32;;
75912;SDS011;64592;52.168;21.040;2023-08-30T03:14:13;24.30;;;15.80;;
75912;SDS011;64592;52.168;21.040;2023-08-30T03:19:16;27.27;;;16.42;;
75912;SDS011;64592;52.168;21.040;2023-08-30T03:24:18;25.83;;;15.43;;
75912;SDS011;64592;52.168;21.040;2023-08-30T03:29:21;23.92;;;15.98;;
75912;SDS011;64592;52.168;21.040;2023-08-30T03:34:22;24.08;;;15.73;;
75912;SDS011;64592;52.168;21.040;2023-08-30T03:39:24;24.08;;;14.68;;
75912;SDS011;64592;52.168;21.040;2023-08-30T03:44:27;24.20;;;15.75;;
75912;SDS011;64592;52.168;21.040;2023-08-30T03:49:29;25.15;;;15.82;;
75912;SDS011;64592;52.168;21.040;2023-08-30T03:54:31;24.73;;;15.23;;
75912;SDS011;64592;52.168;21.040;2023-08-30T03:59:34;24.00;;;15.63;;
75912;SDS011;64592;52.168;21.040;2023-08-30T04:04:35;24.63;;;15.88;;
75912;SDS011;64592;52.168;21.040;2023-08-30T04:09:37;26.98;;;16.02;;
75912;SDS011;64592;52.168;21.040;2023-08-30T04:14:40;23.77;;;14.63;;
75912;SDS011;64592;52.168;21.040;2023-08-30T04:19:42;22.60;;;14.25;;
75912;SDS011;64592;52.168;21.040;2023-08-30T04:24:43;23.42;;;14.63;;
75912;SDS011;64592;52.168;21.040;2023-08-30T04:29:46;23.85;;;15.70;;
75912;SDS011;64592;52.168;21.040;2023-08-30T04:34:48;24.55;;;15.63;;
75912;SDS011;64592;52.168;21.040;2023-08-30T04:39:50;24.80;;;15.35;;
75912;SDS011;64592;52.168;21.040;2023-08-30T04:44:53;24.75;;;14.98;;
75912;SDS011;64592;52.168;21.040;2023-08-30T04:49:56;25.15;;;14.27;;
75912;SDS011;64592;52.168;21.040;2023-08-30T04:54:58;22.25;;;14.27;;
75912;SDS011;64592;52.168;21.040;2023-08-30T05:00:01;23.38;;;14.00;;
75912;SDS011;64592;52.168;21.040;2023-08-30T05:05:05;21.73;;;14.27;;
75912;SDS011;64592;52.168;21.040;2023-08-30T05:10:07;21.15;;;12.90;;
75912;SDS011;64592;52.168;21.040;2023-08-30T05:15:11;21.23;;;12.93;;
75912;SDS011;64592;52.168;21.040;2023-08-30T05:20:12;19.88;;;12.52;;
75912;SDS011;64592;52.168;21.040;2023-08-30T05:25:14;19.45;;;12.93;;
75912;SDS011;64592;52.168;21.040;2023-08-30T05:30:17;19.40;;;11.38;;
75912;SDS011;64592;52.168;21.040;2023-08-30T05:35:19;15.68;;;10.50;;
75912;SDS011;64592;52.168;21.040;2023-08-30T05:40:20;17.38;;;10.75;;
75912;SDS011;64592;52.168;21.040;2023-08-30T05:45:23;17.05;;;11.15;;
75912;SDS011;64592;52.168;21.040;2023-08-30T05:50:25;14.52;;;9.93;;
75912;SDS011;64592;52.168;21.040;2023-08-30T05:55:27;17.55;;;9.93;;
75912;SDS011;64592;52.168;21.040;2023-08-30T06:00:30;15.23;;;9.57;;
75912;SDS011;64592;52.168;21.040;2023-08-30T06:05:32;13.80;;;9.50;;
75912;SDS011;64592;52.168;21.040;2023-08-30T06:10:34;14.00;;;10.18;;
75912;SDS011;64592;52.168;21.040;2023-08-30T06:15:38;16.80;;;10.80;;
75912;SDS011;64592;52.168;21.040;2023-08-30T06:20:40;16.15;;;10.85;;
75912;SDS011;64592;52.168;21.040;2023-08-30T06:25:42;17.10;;;10.60;;
75912;SDS011;64592;52.168;21.040;2023-08-30T06:30:45;19.67;;;10.85;;
75912;SDS011;64592;52.168;21.040;2023-08-30T06:35:47;15.50;;;10.35;;
75912;SDS011;64592;52.168;21.040;2023-08-30T06:40:50;17.85;;;11.48;;
75912;SDS011;64592;52.168;21.040;2023-08-30T06:45:53;17.42;;;11.23;;
75912;SDS011;64592;52.168;21.040;2023-08-30T06:50:58;18.50;;;11.75;;
75912;SDS011;64592;52.168;21.040;2023-08-30T06:56:00;20.48;;;11.60;;
75912;SDS011;64592;52.168;21.040;2023-08-30T07:01:04;19.05;;;11.93;;
75912;SDS011;64592;52.168;21.040;2023-08-30T07:06:05;21.05;;;11.98;;
75912;SDS011;64592;52.168;21.040;2023-08-30T07:11:07;19.48;;;11.90;;
75912;SDS011;64592;52.168;21.040;2023-08-30T07:16:10;20.38;;;11.85;;
75912;SDS011;64592;52.168;21.040;2023-08-30T07:21:12;20.48;;;12.88;;
75912;SDS011;64592;52.168;21.040;2023-08-30T07:26:14;21.05;;;13.40;;
75912;SDS011;64592;52.168;21.040;2023-08-30T07:31:17;25.05;;;15.82;;
75912;SDS011;64592;52.168;21.040;2023-08-30T07:36:19;25.10;;;16.02;;
75912;SDS011;64592;52.168;21.040;2023-08-30T07:41:20;27.13;;;16.77;;
75912;SDS011;64592;52.168;21.040;2023-08-30T07:46:23;26.45;;;17.38;;
75912;SDS011;64592;52.168;21.040;2023-08-30T07:51:26;34.92;;;19.80;;
75912;SDS011;64592;52.168;21.040;2023-08-30T07:56:28;33.50;;;19.33;;
75912;SDS011;64592;52.168;21.040;2023-08-30T08:01:31;35.15;;;19.35;;
75912;SDS011;64592;52.168;21.040;2023-08-30T08:06:33;38.72;;;20.58;;
75912;SDS011;64592;52.168;21.040;2023-08-30T08:11:35;35.13;;;19.45;;
75912;SDS011;64592;52.168;21.040;2023-08-30T08:16:38;32.83;;;18.10;;
75912;SDS011;64592;52.168;21.040;2023-08-30T08:21:39;29.85;;;17.08;;
75912;SDS011;64592;52.168;21.040;2023-08-30T08:26:41;30.70;;;17.27;;
75912;SDS011;64592;52.168;21.040;2023-08-30T08:31:44;23.60;;;13.80;;
75912;SDS011;64592;52.168;21.040;2023-08-30T08:36:46;21.58;;;12.07;;
75912;SDS011;64592;52.168;21.040;2023-08-30T08:41:47;16.38;;;10.25;;
75912;SDS011;64592;52.168;21.040;2023-08-30T08:46:54;12.73;;;8.07;;
75912;SDS011;64592;52.168;21.040;2023-08-30T08:51:55;13.52;;;7.53;;
75912;SDS011;64592;52.168;21.040;2023-08-30T08:56:57;13.45;;;8.85;;
75912;SDS011;64592;52.168;21.040;2023-08-30T09:02:01;10.93;;;7.45;;
75912;SDS011;64592;52.168;21.040;2023-08-30T09:07:03;13.95;;;6.70;;
75912;SDS011;64592;52.168;21.040;2023-08-30T09:12:04;12.32;;;7.50;;
75912;SDS011;64592;52.168;21.040;2023-08-30T09:17:08;10.95;;;6.68;;
75912;SDS011;64592;52.168;21.040;2023-08-30T09:22:09;7.75;;;5.65;;
75912;SDS011;64592;52.168;21.040;2023-08-30T09:27:11;8.68;;;5.65;;
75912;SDS011;64592;52.168;21.040;2023-08-30T09:32:20;8.13;;;5.47;;
75912;SDS011;64592;52.168;21.040;2023-08-30T09:37:22;7.82;;;5.07;;
75912;SDS011;64592;52.168;21.040;2023-08-30T09:42:24;8.40;;;5.15;;
75912;SDS011;64592;52.168;21.040;2023-08-30T09:47:27;6.68;;;4.35;;
75912;SDS011;64592;52.168;21.040;2023-08-30T09:52:30;6.18;;;4.15;;
75912;SDS011;64592;52.168;21.040;2023-08-30T09:57:34;5.80;;;4.00;;
75912;SDS011;64592;52.168;21.040;2023-08-30T10:02:37;6.65;;;3.85;;
75912;SDS011;64592;52.168;21.040;2023-08-30T10:07:41;6.82;;;4.20;;
75912;SDS011;64592;52.168;21.040;2023-08-30T10:12:44;7.50;;;4.35;;
75912;SDS011;64592;52.168;21.040;2023-08-30T10:17:49;7.30;;;4.68;;
75912;SDS011;64592;52.168;21.040;2023-08-30T10:22:55;4.90;;;3.78;;
75912;SDS011;64592;52.168;21.040;2023-08-30T10:27:58;6.43;;;4.32;;
75912;SDS011;64592;52.168;21.040;2023-08-30T10:33:02;5.85;;;4.22;;
75912;SDS011;64592;52.168;21.040;2023-08-30T10:38:12;5.93;;;4.63;;
75912;SDS011;64592;52.168;21.040;2023-08-30T10:43:14;6.63;;;4.93;;
75912;SDS011;64592;52.168;21.040;2023-08-30T10:48:17;6.55;;;4.50;;
75912;SDS011;64592;52.168;21.040;2023-08-30T10:53:19;5.53;;;4.25;;
75912;SDS011;64592;52.168;21.040;2023-08-30T10:58:38;8.10;;;4.65;;
75912;SDS011;64592;52.168;21.040;2023-08-30T11:03:42;7.30;;;4.75;;
75912;SDS011;64592;52.168;21.040;2023-08-30T11:08:44;7.70;;;4.65;;
75912;SDS011;64592;52.168;21.040;2023-08-30T11:13:46;7.15;;;4.93;;
75912;SDS011;64592;52.168;21.040;2023-08-30T11:18:49;7.38;;;5.70;;
75912;SDS011;64592;52.168;21.040;2023-08-30T11:23:51;7.40;;;5.15;;
75912;SDS011;64592;52.168;21.040;2023-08-30T11:28:53;9.43;;;6.07;;
75912;SDS011;64592;52.168;21.040;2023-08-30T11:33:56;7.63;;;5.55;;
75912;SDS011;64592;52.168;21.040;2023-08-30T11:38:59;6.88;;;4.60;;
75912;SDS011;64592;52.168;21.040;2023-08-30T11:44:01;6.95;;;4.40;;
75912;SDS011;64592;52.168;21.040;2023-08-30T11:49:06;7.18;;;4.20;;
75912;SDS011;64592;52.168;21.040;2023-08-30T11:54:07;7.00;;;4.30;;
75912;SDS011;64592;52.168;21.040;2023-08-30T11:59:17;5.03;;;3.67;;
75912;SDS011;64592;52.168;21.040;2023-08-30T12:04:21;6.38;;;3.80;;
75912;SDS011;64592;52.168;21.040;2023-08-30T12:09:22;4.57;;;3.35;;
75912;SDS011;64592;52.168;21.040;2023-08-30T12:14:32;5.45;;;3.53;;
75912;SDS011;64592;52.168;21.040;2023-08-30T12:19:35;6.03;;;3.78;;
75912;SDS011;64592;52.168;21.040;2023-08-30T12:24:41;7.35;;;4.65;;
75912;SDS011;64592;52.168;21.040;2023-08-30T12:29:43;8.48;;;4.63;;
75912;SDS011;64592;52.168;21.040;2023-08-30T12:34:46;7.25;;;4.75;;
75912;SDS011;64592;52.168;21.040;2023-08-30T12:39:48;7.97;;;5.85;;
75912;SDS011;64592;52.168;21.040;2023-08-30T12:44:50;9.00;;;5.57;;
75912;SDS011;64592;52.168;21.040;2023-08-30T12:49:53;9.23;;;6.07;;
75912;SDS011;64592;52.168;21.040;2023-08-30T12:54:54;11.60;;;6.72;;
75912;SDS011;64592;52.168;21.040;2023-08-30T12:59:56;11.13;;;6.43;;
75912;SDS011;64592;52.168;21.040;2023-08-30T13:04:59;7.45;;;5.20;;
75912;SDS011;64592;52.168;21.040;2023-08-30T13:10:01;7.63;;;4.90;;
75912;SDS011;64592;52.168;21.040;2023-08-30T13:15:02;8.23;;;5.20;;
75912;SDS011;64592;52.168;21.040;2023-08-30T13:20:06;9.35;;;5.53;;
75912;SDS011;64592;52.168;21.040;2023-08-30T13:25:09;8.02;;;5.63;;
75912;SDS011;64592;52.168;21.040;2023-08-30T13:30:10;8.60;;;5.75;;
75912;SDS011;64592;52.168;21.040;2023-08-30T13:35:14;10.75;;;5.25;;
75912;SDS011;64592;52.168;21.040;2023-08-30T13:40:15;9.10;;;5.90;;
75912;SDS011;64592;52.168;21.040;2023-08-30T13:45:18;8.65;;;4.63;;
75912;SDS011;64592;52.168;21.040;2023-08-30T13:50:21;7.47;;;4.40;;
75912;SDS011;64592;52.168;21.040;2023-08-30T13:55:22;9.43;;;5.43;;
75912;SDS011;64592;52.168;21.040;2023-08-30T14:00:24;7.20;;;4.90;;
75912;SDS011;64592;52.168;21.040;2023-08-30T14:05:27;9.48;;;4.80;;
75912;SDS011;64592;52.168;21.040;2023-08-30T14:10:29;7.82;;;5.03;;
75912;SDS011;64592;52.168;21.040;2023-08-30T14:15:31;7.25;;;5.20;;
75912;SDS011;64592;52.168;21.040;2023-08-30T14:20:34;10.25;;;6.68;;
75912;SDS011;64592;52.168;21.040;2023-08-30T14:25:36;7.60;;;4.88;;
75912;SDS011;64592;52.168;21.040;2023-08-30T14:30:37;7.43;;;5.30;;
75912;SDS011;64592;52.168;21.040;2023-08-30T14:35:42;5.95;;;3.80;;
75912;SDS011;64592;52.168;21.040;2023-08-30T14:40:44;6.05;;;3.88;;
75912;SDS011;64592;52.168;21.040;2023-08-30T14:45:58;6.18;;;4.10;;
75912;SDS011;64592;52.168;21.040;2023-08-30T14:51:04;8.27;;;5.07;;
75912;SDS011;64592;52.168;21.040;2023-08-30T14:56:06;5.90;;;4.22;;
75912;SDS011;64592;52.168;21.040;2023-08-30T15:01:09;6.05;;;4.03;;
75912;SDS011;64592;52.168;21.040;2023-08-30T15:06:12;6.28;;;4.03;;
75912;SDS011;64592;52.168;21.040;2023-08-30T15:11:14;5.68;;;4.18;;
75912;SDS011;64592;52.168;21.040;2023-08-30T15:16:15;5.82;;;3.72;;
75912;SDS011;64592;52.168;21.040;2023-08-30T15:21:18;5.40;;;3.80;;
75912;SDS011;64592;52.168;21.040;2023-08-30T15:26:20;5.35;;;3.58;;
75912;SDS011;64592;52.168;21.040;2023-08-30T15:31:22;7.55;;;4.07;;
75912;SDS011;64592;52.168;21.040;2023-08-30T15:36:25;7.93;;;4.57;;
75912;SDS011;64592;52.168;21.040;2023-08-30T15:41:26;7.80;;;4.18;;
75912;SDS011;64592;52.168;21.040;2023-08-30T15:46:28;5.97;;;3.80;;
75912;SDS011;64592;52.168;21.040;2023-08-30T15:51:31;5.50;;;3.55;;
75912;SDS011;64592;52.168;21.040;2023-08-30T15:56:33;5.70;;;3.95;;
75912;SDS011;64592;52.168;21.040;2023-08-30T16:01:34;5.72;;;3.63;;
75912;SDS011;64592;52.168;21.040;2023-08-30T16:06:37;5.95;;;4.20;;
75912;SDS011;64592;52.168;21.040;2023-08-30T16:11:40;5.82;;;3.92;;
75912;SDS011;64592;52.168;21.040;2023-08-30T16:16:41;7.55;;;3.90;;
75912;SDS011;64592;52.168;21.040;2023-08-30T16:21:44;6.30;;;3.55;;
75912;SDS011;64592;52.168;21.040;2023-08-30T16:26:48;5.10;;;3.60;;
75912;SDS011;64592;52.168;21.040;2023-08-30T16:31:55;5.18;;;3.40;;
75912;SDS011;64592;52.168;21.040;2023-08-30T16:36:58;4.88;;;3.38;;
75912;SDS011;64592;52.168;21.040;2023-08-30T16:42:00;5.90;;;3.88;;
75912;SDS011;64592;52.168;21.040;2023-08-30T16:47:01;4.82;;;3.15;;
75912;SDS011;64592;52.168;21.040;2023-08-30T16:52:05;6.07;;;3.70;;
75912;SDS011;64592;52.168;21.040;2023-08-30T16:57:07;4.50;;;2.88;;
75912;SDS011;64592;52.168;21.040;2023-08-30T17:02:09;4.75;;;3.15;;
75912;SDS011;64592;52.168;21.040;2023-08-30T17:07:12;6.32;;;3.53;;
75912;SDS011;64592;52.168;21.040;2023-08-30T17:12:13;8.63;;;3.40;;
75912;SDS011;64592;52.168;21.040;2023-08-30T17:17:15;5.63;;;3.58;;
75912;SDS011;64592;52.168;21.040;2023-08-30T17:22:18;4.80;;;3.17;;
75912;SDS011;64592;52.168;21.040;2023-08-30T17:27:21;6.75;;;4.05;;
75912;SDS011;64592;52.168;21.040;2023-08-30T17:32:23;4.90;;;3.38;;
75912;SDS011;64592;52.168;21.040;2023-08-30T17:37:26;8.00;;;3.88;;
75912;SDS011;64592;52.168;21.040;2023-08-30T17:42:28;7.00;;;4.25;;
75912;SDS011;64592;52.168;21.040;2023-08-30T17:47:29;7.70;;;4.38;;
75912;SDS011;64592;52.168;21.040;2023-08-30T17:52:32;7.95;;;4.85;;
75912;SDS011;64592;52.168;21.040;2023-08-30T17:57:34;8.88;;;4.82;;
75912;SDS011;64592;52.168;21.040;2023-08-30T18:02:36;9.57;;;5.53;;
75912;SDS011;64592;52.168;21.040;2023-08-30T18:07:39;9.32;;;4.80;;
75912;SDS011;64592;52.168;21.040;2023-08-30T18:12:40;7.90;;;4.38;;
75912;SDS011;64592;52.168;21.040;2023-08-30T18:17:42;8.13;;;5.00;;
75912;SDS011;64592;52.168;21.040;2023-08-30T18:22:45;9.90;;;5.07;;
75912;SDS011;64592;52.168;21.040;2023-08-30T18:27:47;10.80;;;5.25;;
75912;SDS011;64592;52.168;21.040;2023-08-30T18:32:49;9.00;;;5.00;;
75912;SDS011;64592;52.168;21.040;2023-08-30T18:37:53;9.52;;;6.05;;
75912;SDS011;64592;52.168;21.040;2023-08-30T18:42:54;10.73;;;6.25;;
75912;SDS011;64592;52.168;21.040;2023-08-30T18:47:57;10.45;;;6.43;;
75912;SDS011;64592;52.168;21.040;2023-08-30T18:53:01;10.68;;;6.00;;
75912;SDS011;64592;52.168;21.040;2023-08-30T18:58:04;10.68;;;5.82;;
75912;SDS011;64592;52.168;21.040;2023-08-30T19:03:06;9.68;;;5.80;;
75912;SDS011;64592;52.168;21.040;2023-08-30T19:08:09;10.48;;;5.85;;
75912;SDS011;64592;52.168;21.040;2023-08-30T19:13:12;10.40;;;6.40;;
75912;SDS011;64592;52.168;21.040;2023-08-30T19:18:14;9.45;;;5.10;;
75912;SDS011;64592;52.168;21.040;2023-08-30T19:23:17;11.50;;;5.22;;
75912;SDS011;64592;52.168;21.040;2023-08-30T19:28:19;8.77;;;5.15;;
75912;SDS011;64592;52.168;21.040;2023-08-30T19:33:20;11.30;;;5.60;;
75912;SDS011;64592;52.168;21.040;2023-08-30T19:38:24;7.80;;;5.00;;
75912;SDS011;64592;52.168;21.040;2023-08-30T19:43:26;10.18;;;5.55;;
75912;SDS011;64592;52.168;21.040;2023-08-30T19:48:28;11.63;;;5.97;;
75912;SDS011;64592;52.168;21.040;2023-08-30T19:53:31;10.75;;;6.07;;
75912;SDS011;64592;52.168;21.040;2023-08-30T19:58:34;8.18;;;5.20;;
75912;SDS011;64592;52.168;21.040;2023-08-30T20:03:35;12.93;;;5.75;;
75912;SDS011;64592;52.168;21.040;2023-08-30T20:08:40;12.02;;;6.65;;
75912;SDS011;64592;52.168;21.040;2023-08-30T20:13:41;9.40;;;6.43;;
75912;SDS011;64592;52.168;21.040;2023-08-30T20:18:43;10.80;;;6.43;;
75912;SDS011;64592;52.168;21.040;2023-08-30T20:23:46;13.52;;;7.22;;
75912;SDS011;64592;52.168;21.040;2023-08-30T20:28:48;8.25;;;5.85;;
75912;SDS011;64592;52.168;21.040;2023-08-30T20:33:50;13.00;;;6.28;;
75912;SDS011;64592;52.168;21.040;2023-08-30T20:38:54;10.57;;;6.38;;
75912;SDS011;64592;52.168;21.040;2023-08-30T20:43:56;8.20;;;6.10;;
75912;SDS011;64592;52.168;21.040;2023-08-30T20:48:58;10.85;;;6.50;;
75912;SDS011;64592;52.168;21.040;2023-08-30T20:54:01;10.98;;;6.60;;
75912;SDS011;64592;52.168;21.040;2023-08-30T20:59:03;9.95;;;6.05;;
75912;SDS011;64592;52.168;21.040;2023-08-30T21:04:05;8.25;;;5.88;;
75912;SDS011;64592;52.168;21.040;2023-08-30T21:09:08;11.27;;;6.63;;
75912;SDS011;64592;52.168;21.040;2023-08-30T21:14:10;8.68;;;5.45;;
75912;SDS011;64592;52.168;21.040;2023-08-30T21:19:13;8.90;;;6.00;;
75912;SDS011;64592;52.168;21.040;2023-08-30T21:24:16;9.15;;;5.85;;
75912;SDS011;64592;52.168;21.040;2023-08-30T21:29:18;12.63;;;6.22;;
75912;SDS011;64592;52.168;21.040;2023-08-30T21:34:19;8.43;;;5.57;;
75912;SDS011;64592;52.168;21.040;2023-08-30T21:39:23;10.15;;;6.25;;
75912;SDS011;64592;52.168;21.040;2023-08-30T21:44:24;8.32;;;5.47;;
75912;SDS011;64592;52.168;21.040;2023-08-30T21:49:26;8.60;;;6.00;;
75912;SDS011;64592;52.168;21.040;2023-08-30T21:54:29;9.20;;;6.03;;
75912;SDS011;64592;52.168;21.040;2023-08-30T21:59:31;11.27;;;6.07;;
75912;SDS011;64592;52.168;21.040;2023-08-30T22:04:32;10.13;;;6.07;;
75912;SDS011;64592;52.168;21.040;2023-08-30T22:09:35;9.98;;;6.15;;
75912;SDS011;64592;52.168;21.040;2023-08-30T22:14:37;12.20;;;6.00;;
75912;SDS011;64592;52.168;21.040;2023-08-30T22:19:38;9.52;;;6.18;;
75912;SDS011;64592;52.168;21.040;2023-08-30T22:24:42;7.97;;;5.75;;
75912;SDS011;64592;52.168;21.040;2023-08-30T22:29:44;9.65;;;6.32;;
75912;SDS011;64592;52.168;21.040;2023-08-30T22:34:45;9.70;;;6.82;;
75912;SDS011;64592;52.168;21.040;2023-08-30T22:39:49;10.90;;;6.57;;
75912;SDS011;64592;52.168;21.040;2023-08-30T22:44:51;10.00;;;7.03;;
75912;SDS011;64592;52.168;21.040;2023-08-30T22:49:53;10.93;;;6.38;;
75912;SDS011;64592;52.168;21.040;2023-08-30T22:54:56;9.02;;;6.13;;
75912;SDS011;64592;52.168;21.040;2023-08-30T23:00:00;9.88;;;6.72;;
75912;SDS011;64592;52.168;21.040;2023-08-30T23:05:06;10.32;;;6.63;;
75912;SDS011;64592;52.168;21.040;2023-08-30T23:10:10;11.27;;;6.68;;
75912;SDS011;64592;52.168;21.040;2023-08-30T23:15:13;8.88;;;5.93;;
75912;SDS011;64592;52.168;21.040;2023-08-30T23:20:15;8.73;;;6.13;;
75912;SDS011;64592;52.168;21.040;2023-08-30T23:25:18;11.82;;;6.38;;
75912;SDS011;64592;52.168;21.040;2023-08-30T23:30:20;10.25;;;5.68;;
75912;SDS011;64592;52.168;21.040;2023-08-30T23:35:22;8.77;;;6.10;;
75912;SDS011;64592;52.168;21.040;2023-08-30T23:40:25;8.40;;;6.03;;
75912;SDS011;64592;52.168;21.040;2023-08-30T23:45:26;7.88;;;5.20;;
75912;SDS011;64592;52.168;21.040;2023-08-30T23:50:28;7.88;;;5.43;;
75912;SDS011;64592;52.168;21.040;2023-08-30T23:55:32;10.40;;;6.38;;
